Terminal Aerodrome Forecast
Issued by NWS

Home | Current Version | Previous Version | Text Only | Print | Product List | Glossary On
Versions: 1 2 3 4 5 6 7 8 9 10 11 12 13 14 15
329
FTUS46 KMTR 281120
TAFOAK
TAF
KOAK 281120Z 2812/0118 32006KT P6SM SKC
     FM282200 29010KT P6SM SKC
     FM010400 30005KT P6SM SKC
     FM010900 VRB03KT P6SM SKC=

USA.gov is the U.S. government's official web portal to all federal, state and local government web resources and services.